AAL5 KDFW-PHNL
Flight info
| Callsign | AAL5 |
|---|---|
| Flight time | N/A |
| Altitude | 40000 |
| Route | KATZZ2 BRHMA CNX ONM DEHOG KA27O TTRUE PMD 35N120W KO33E CINNY BAART R464 BITTA MAGGI3 |
| Aircraft | B788/H-SDE1E2E3FGHIJ2J3J4J5M1RWXY/LB1D1 |
Departure
| Time | 2026-04-30 22:09 |
|---|---|
| Airport | Dallas Fort Worth International Airport (KDFW) |
Arrival
| Time | N/A |
|---|---|
| Airport | Daniel K. Inouye International Airport (PHNL) |
| Time | Latitude | Longitude | Altitude | Speed | Heading |
|---|---|---|---|---|---|
| 2026-04-30 21:46 | 32.89837 | -97.04593 | 604 ft | 0 kts | 90° |
| 2026-04-30 21:46 | 32.89837 | -97.04588 | 604 ft | 0 kts | 90° |
| 2026-04-30 21:47 | 32.89514 | -97.04520 | 604 ft | 0 kts | 38° |
| 2026-04-30 21:48 | 32.89501 | -97.04464 | 604 ft | 0 kts | 0° |
| 2026-04-30 21:57 | 32.89485 | -97.04465 | 604 ft | 4 kts | 0° |
| 2026-04-30 21:57 | 32.89458 | -97.04465 | 604 ft | 4 kts | 0° |
| 2026-04-30 21:58 | 32.89439 | -97.04462 | 604 ft | 4 kts | 330° |
| 2026-04-30 21:58 | 32.89429 | -97.04443 | 604 ft | 4 kts | 284° |
| 2026-04-30 21:58 | 32.89426 | -97.04416 | 604 ft | 1 kts | 270° |
| 2026-04-30 21:58 | 32.89426 | -97.04415 | 604 ft | 0 kts | 270° |
| 2026-04-30 22:01 | 32.89426 | -97.04432 | 604 ft | 3 kts | 269° |
| 2026-04-30 22:01 | 32.89425 | -97.04437 | 604 ft | 0 kts | 260° |
| 2026-04-30 22:01 | 32.89425 | -97.04438 | 604 ft | 1 kts | 262° |
| 2026-04-30 22:02 | 32.89425 | -97.04453 | 604 ft | 3 kts | 271° |
| 2026-04-30 22:02 | 32.89426 | -97.04494 | 604 ft | 7 kts | 271° |
| 2026-04-30 22:02 | 32.89427 | -97.04562 | 604 ft | 10 kts | 271° |
| 2026-04-30 22:02 | 32.89428 | -97.04657 | 603 ft | 13 kts | 270° |
| 2026-04-30 22:03 | 32.89429 | -97.04718 | 601 ft | 17 kts | 271° |
| 2026-04-30 22:03 | 32.89401 | -97.04765 | 600 ft | 5 kts | 181° |
| 2026-04-30 22:03 | 32.89354 | -97.04766 | 600 ft | 8 kts | 180° |
| 2026-04-30 22:03 | 32.89284 | -97.04766 | 600 ft | 12 kts | 181° |
| 2026-04-30 22:04 | 32.89184 | -97.04767 | 600 ft | 17 kts | 180° |
| 2026-04-30 22:04 | 32.89046 | -97.04767 | 597 ft | 23 kts | 180° |
| 2026-04-30 22:04 | 32.88693 | -97.04770 | 595 ft | 26 kts | 180° |
| 2026-04-30 22:05 | 32.88519 | -97.04772 | 593 ft | 16 kts | 197° |
| 2026-04-30 22:05 | 32.88428 | -97.04806 | 595 ft | 13 kts | 180° |
| 2026-04-30 22:05 | 32.88332 | -97.04807 | 595 ft | 16 kts | 180° |
| 2026-04-30 22:05 | 32.88208 | -97.04807 | 593 ft | 20 kts | 181° |
| 2026-04-30 22:06 | 32.88059 | -97.04809 | 592 ft | 23 kts | 180° |
| 2026-04-30 22:06 | 32.87911 | -97.04901 | 591 ft | 12 kts | 269° |
| 2026-04-30 22:06 | 32.87911 | -97.04950 | 591 ft | 0 kts | 270° |
| 2026-04-30 22:07 | 32.87911 | -97.04952 | 591 ft | 1 kts | 270° |
| 2026-04-30 22:08 | 32.87911 | -97.04988 | 591 ft | 8 kts | 270° |
| 2026-04-30 22:08 | 32.87921 | -97.05069 | 593 ft | 11 kts | 308° |
| 2026-04-30 22:08 | 32.87991 | -97.05091 | 595 ft | 11 kts | 360° |
| 2026-04-30 22:08 | 32.88135 | -97.05089 | 597 ft | 41 kts | 1° |
| 2026-04-30 22:09 | 32.88625 | -97.05087 | 593 ft | 99 kts | 0° |
| 2026-04-30 22:09 | 32.89500 | -97.05082 | 613 ft | 150 kts | 0° |
| 2026-04-30 22:09 | 32.90681 | -97.05089 | 812 ft | 183 kts | 357° |
| 2026-04-30 22:09 | 32.91928 | -97.05151 | 1910 ft | 167 kts | 360° |
| 2026-04-30 22:10 | 32.93063 | -97.05248 | 2818 ft | 169 kts | 1° |
| 2026-04-30 22:10 | 32.94274 | -97.05367 | 3314 ft | 178 kts | 357° |
| 2026-04-30 22:10 | 32.95438 | -97.05830 | 4105 ft | 175 kts | 343° |
| 2026-04-30 22:10 | 32.96618 | -97.06361 | 4477 ft | 193 kts | 343° |
| 2026-04-30 22:11 | 32.99329 | -97.07397 | 5563 ft | 212 kts | 339° |
| 2026-04-30 22:11 | 33.00503 | -97.08273 | 6206 ft | 208 kts | 307° |
| 2026-04-30 22:11 | 33.01067 | -97.09811 | 6943 ft | 201 kts | 276° |
| 2026-04-30 22:12 | 33.01029 | -97.11479 | 7423 ft | 213 kts | 265° |
| 2026-04-30 22:12 | 33.00900 | -97.13378 | 7494 ft | 247 kts | 264° |
| 2026-04-30 22:12 | 33.00767 | -97.15497 | 7956 ft | 262 kts | 265° |
| 2026-04-30 22:12 | 33.00594 | -97.17659 | 8762 ft | 262 kts | 262° |
| 2026-04-30 22:13 | 33.00370 | -97.19807 | 9624 ft | 261 kts | 264° |
| 2026-04-30 22:13 | 33.00185 | -97.21967 | 10438 ft | 262 kts | 264° |
| 2026-04-30 22:13 | 32.99853 | -97.24142 | 10906 ft | 275 kts | 252° |
| 2026-04-30 22:13 | 32.98994 | -97.26264 | 11230 ft | 294 kts | 244° |
| 2026-04-30 22:14 | 32.97997 | -97.28473 | 11510 ft | 312 kts | 244° |
| 2026-04-30 22:14 | 32.96941 | -97.30814 | 11755 ft | 330 kts | 244° |
| 2026-04-30 22:14 | 32.95839 | -97.33287 | 11958 ft | 347 kts | 244° |
| 2026-04-30 22:14 | 32.94466 | -97.36370 | 12277 ft | 363 kts | 244° |
| 2026-04-30 22:15 | 32.92062 | -97.41732 | 13415 ft | 371 kts | 243° |
| 2026-04-30 22:15 | 32.89626 | -97.47172 | 14564 ft | 374 kts | 244° |
| 2026-04-30 22:15 | 32.87164 | -97.52656 | 15665 ft | 377 kts | 244° |
| 2026-04-30 22:15 | 32.84682 | -97.58179 | 16718 ft | 380 kts | 245° |
| 2026-04-30 22:16 | 32.82177 | -97.63744 | 17670 ft | 384 kts | 245° |
| 2026-04-30 22:16 | 32.79985 | -97.69507 | 18524 ft | 382 kts | 255° |
| 2026-04-30 22:17 | 32.81318 | -97.88291 | 20486 ft | 396 kts | 283° |
| 2026-04-30 22:17 | 32.82802 | -97.94651 | 21106 ft | 401 kts | 283° |
| 2026-04-30 22:17 | 32.85818 | -98.07611 | 22219 ft | 412 kts | 282° |
| 2026-04-30 22:18 | 32.87347 | -98.14214 | 22747 ft | 417 kts | 282° |
| 2026-04-30 22:18 | 32.90447 | -98.27633 | 23768 ft | 424 kts | 282° |
| 2026-04-30 22:19 | 32.93576 | -98.41221 | 24582 ft | 427 kts | 282° |
| 2026-04-30 22:19 | 32.95142 | -98.48052 | 24973 ft | 428 kts | 282° |
| 2026-04-30 22:19 | 32.98254 | -98.61680 | 25753 ft | 430 kts | 282° |
| 2026-04-30 22:20 | 32.99750 | -98.68258 | 26125 ft | 431 kts | 282° |
| 2026-04-30 22:20 | 33.02870 | -98.82031 | 27105 ft | 429 kts | 282° |
| 2026-04-30 22:20 | 33.05474 | -98.93589 | 27863 ft | 429 kts | 282° |
| 2026-04-30 22:21 | 33.08540 | -99.07264 | 29054 ft | 424 kts | 282° |
| 2026-04-30 22:21 | 33.11540 | -99.20722 | 30451 ft | 416 kts | 281° |
| 2026-04-30 22:21 | 33.14471 | -99.33944 | 31692 ft | 410 kts | 281° |
| 2026-04-30 22:21 | 33.17353 | -99.47009 | 32962 ft | 405 kts | 281° |
| 2026-04-30 22:22 | 33.20193 | -99.59961 | 34209 ft | 401 kts | 280° |
| 2026-04-30 22:22 | 33.22990 | -99.72236 | 35231 ft | 398 kts | 281° |
| 2026-04-30 22:22 | 33.25867 | -99.84961 | 36229 ft | 396 kts | 281° |
| 2026-04-30 22:22 | 33.28720 | -99.97646 | 37194 ft | 394 kts | 281° |
| 2026-04-30 22:23 | 33.31543 | -100.10257 | 38110 ft | 391 kts | 281° |
| 2026-04-30 22:23 | 33.34336 | -100.22797 | 38904 ft | 389 kts | 281° |
| 2026-04-30 22:23 | 33.37107 | -100.35302 | 39547 ft | 388 kts | 281° |
| 2026-04-30 22:23 | 33.39860 | -100.47801 | 39993 ft | 391 kts | 281° |
| 2026-04-30 22:24 | 33.45317 | -100.72745 | 39995 ft | 386 kts | 280° |
| 2026-04-30 22:24 | 33.50683 | -100.97539 | 40006 ft | 382 kts | 280° |
| 2026-04-30 22:25 | 33.55770 | -101.22249 | 40008 ft | 382 kts | 279° |
| 2026-04-30 22:25 | 33.60729 | -101.47004 | 40014 ft | 382 kts | 279° |
| 2026-04-30 22:26 | 33.68087 | -101.84246 | 40051 ft | 382 kts | 278° |
| 2026-04-30 22:27 | 33.72927 | -102.09089 | 40013 ft | 383 kts | 278° |
| 2026-04-30 22:27 | 33.80116 | -102.46526 | 39980 ft | 383 kts | 277° |
| 2026-04-30 22:28 | 33.87217 | -102.84163 | 39958 ft | 384 kts | 277° |
| 2026-04-30 22:29 | 34.03993 | -103.75869 | 39936 ft | 385 kts | 276° |
| 2026-04-30 22:31 | 34.18854 | -104.60714 | 39905 ft | 387 kts | 275° |
| 2026-04-30 22:32 | 34.29594 | -105.24427 | 39933 ft | 390 kts | 275° |
| 2026-04-30 22:33 | 34.36254 | -105.88872 | 39862 ft | 384 kts | 264° |
| 2026-04-30 22:35 | 34.34704 | -106.53086 | 39755 ft | 386 kts | 263° |
| 2026-04-30 22:36 | 34.34565 | -107.05990 | 39732 ft | 400 kts | 266° |
| 2026-04-30 22:36 | 34.34921 | -107.19397 | 39718 ft | 397 kts | 266° |
| 2026-04-30 22:37 | 34.36204 | -107.73197 | 39728 ft | 401 kts | 266° |
| 2026-04-30 22:38 | 34.37256 | -108.27248 | 39737 ft | 400 kts | 266° |
| 2026-04-30 22:39 | 34.37888 | -108.67761 | 39733 ft | 402 kts | 265° |
| 2026-04-30 22:40 | 34.38757 | -109.49524 | 39817 ft | 409 kts | 265° |
| 2026-04-30 22:41 | 34.38991 | -109.91176 | 39965 ft | 418 kts | 265° |
| 2026-04-30 22:41 | 34.40151 | -110.19315 | 39981 ft | 424 kts | 269° |
| 2026-04-30 22:42 | 34.43565 | -110.76522 | 39826 ft | 427 kts | 269° |
| 2026-04-30 22:43 | 34.45183 | -111.05410 | 39840 ft | 434 kts | 269° |
| 2026-04-30 22:44 | 34.48272 | -111.64355 | 39798 ft | 439 kts | 269° |
| 2026-04-30 22:45 | 34.51561 | -112.24051 | 39908 ft | 450 kts | 272° |
| 2026-04-30 22:45 | 34.53455 | -112.54270 | 39823 ft | 453 kts | 272° |
| 2026-04-30 22:47 | 34.58780 | -113.46655 | 39768 ft | 463 kts | 274° |
| 2026-04-30 22:48 | 34.61999 | -114.09467 | 39756 ft | 465 kts | 275° |